sensor_id;sensor_type;location;lat;lon;timestamp;pressure;altitude;pressure_sealevel;temperature;humidity
67009;BME280;53922;52.080;4.748;2022-07-10T00:01:26;102703.88;;;15.41;72.62
67009;BME280;53922;52.080;4.748;2022-07-10T00:03:51;102709.88;;;15.34;73.33
67009;BME280;53922;52.080;4.748;2022-07-10T00:06:17;102709.69;;;15.28;73.92
67009;BME280;53922;52.080;4.748;2022-07-10T00:08:42;102700.59;;;15.19;74.56
67009;BME280;53922;52.080;4.748;2022-07-10T00:11:07;102705.88;;;15.18;74.64
67009;BME280;53922;52.080;4.748;2022-07-10T00:13:33;102701.19;;;15.09;74.90
67009;BME280;53922;52.080;4.748;2022-07-10T00:15:58;102699.44;;;15.09;75.88
67009;BME280;53922;52.080;4.748;2022-07-10T00:18:24;102689.50;;;15.02;74.93
67009;BME280;53922;52.080;4.748;2022-07-10T00:20:49;102695.53;;;14.97;75.47
67009;BME280;53922;52.080;4.748;2022-07-10T00:23:14;102694.47;;;14.90;75.98
67009;BME280;53922;52.080;4.748;2022-07-10T00:25:40;102686.31;;;14.84;75.72
67009;BME280;53922;52.080;4.748;2022-07-10T00:28:05;102692.44;;;14.81;76.07
67009;BME280;53922;52.080;4.748;2022-07-10T00:30:30;102685.25;;;14.77;76.14
67009;BME280;53922;52.080;4.748;2022-07-10T00:32:55;102685.13;;;14.72;76.38
67009;BME280;53922;52.080;4.748;2022-07-10T00:35:21;102689.34;;;14.66;76.12
67009;BME280;53922;52.080;4.748;2022-07-10T00:37:46;102693.56;;;14.60;75.88
67009;BME280;53922;52.080;4.748;2022-07-10T00:40:11;102685.50;;;14.56;76.48
67009;BME280;53922;52.080;4.748;2022-07-10T00:42:37;102681.66;;;14.46;76.56
67009;BME280;53922;52.080;4.748;2022-07-10T00:45:02;102679.94;;;14.48;76.33
67009;BME280;53922;52.080;4.748;2022-07-10T00:47:27;102682.41;;;14.42;76.75
67009;BME280;53922;52.080;4.748;2022-07-10T00:49:53;102680.50;;;14.38;77.31
67009;BME280;53922;52.080;4.748;2022-07-10T00:52:18;102678.84;;;14.41;77.89
67009;BME280;53922;52.080;4.748;2022-07-10T00:54:45;102666.56;;;14.45;77.35
67009;BME280;53922;52.080;4.748;2022-07-10T00:57:12;102664.03;;;14.48;77.22
67009;BME280;53922;52.080;4.748;2022-07-10T00:59:39;102670.03;;;14.42;77.43
67009;BME280;53922;52.080;4.748;2022-07-10T01:02:05;102670.66;;;14.34;77.67
67009;BME280;53922;52.080;4.748;2022-07-10T01:04:30;102674.91;;;14.28;77.75
67009;BME280;53922;52.080;4.748;2022-07-10T01:06:56;102668.75;;;14.29;77.69
67009;BME280;53922;52.080;4.748;2022-07-10T01:09:21;102670.50;;;14.29;77.96
67009;BME280;53922;52.080;4.748;2022-07-10T01:11:46;102672.31;;;14.30;77.44
67009;BME280;53922;52.080;4.748;2022-07-10T01:14:12;102669.50;;;14.25;77.19
67009;BME280;53922;52.080;4.748;2022-07-10T01:16:37;102672.25;;;14.28;77.15
67009;BME280;53922;52.080;4.748;2022-07-10T01:19:02;102671.41;;;14.29;77.37
67009;BME280;53922;52.080;4.748;2022-07-10T01:21:33;102667.81;;;14.27;77.68
67009;BME280;53922;52.080;4.748;2022-07-10T01:23:59;102665.97;;;14.25;77.77
67009;BME280;53922;52.080;4.748;2022-07-10T01:26:25;102666.75;;;14.22;78.07
67009;BME280;53922;52.080;4.748;2022-07-10T01:28:51;102663.03;;;14.16;77.62
67009;BME280;53922;52.080;4.748;2022-07-10T01:31:24;102657.72;;;14.16;77.95
67009;BME280;53922;52.080;4.748;2022-07-10T01:33:49;102658.53;;;14.13;78.10
67009;BME280;53922;52.080;4.748;2022-07-10T01:36:14;102655.72;;;14.08;78.12
67009;BME280;53922;52.080;4.748;2022-07-10T01:38:41;102659.19;;;14.06;78.33
67009;BME280;53922;52.080;4.748;2022-07-10T01:41:06;102655.53;;;14.02;78.24
67009;BME280;53922;52.080;4.748;2022-07-10T01:43:33;102651.84;;;13.97;78.56
67009;BME280;53922;52.080;4.748;2022-07-10T01:45:58;102653.47;;;13.93;78.61
67009;BME280;53922;52.080;4.748;2022-07-10T01:48:23;102650.75;;;13.90;78.94
67009;BME280;53922;52.080;4.748;2022-07-10T01:50:49;102660.22;;;13.84;79.66
67009;BME280;53922;52.080;4.748;2022-07-10T01:53:14;102645.94;;;13.78;79.84
67009;BME280;53922;52.080;4.748;2022-07-10T01:55:39;102639.66;;;13.76;80.29
67009;BME280;53922;52.080;4.748;2022-07-10T01:58:04;102644.03;;;13.74;80.03
67009;BME280;53922;52.080;4.748;2022-07-10T02:00:30;102639.53;;;13.72;80.67
67009;BME280;53922;52.080;4.748;2022-07-10T02:02:55;102633.13;;;13.65;80.41
67009;BME280;53922;52.080;4.748;2022-07-10T02:05:39;102635.84;;;13.67;80.65
67009;BME280;53922;52.080;4.748;2022-07-10T02:08:04;102639.34;;;13.66;80.34
67009;BME280;53922;52.080;4.748;2022-07-10T02:10:31;102638.31;;;13.62;80.32
67009;BME280;53922;52.080;4.748;2022-07-10T02:12:56;102642.78;;;13.63;80.97
67009;BME280;53922;52.080;4.748;2022-07-10T02:15:21;102651.59;;;13.62;81.34
67009;BME280;53922;52.080;4.748;2022-07-10T02:17:47;102648.00;;;13.61;81.57
67009;BME280;53922;52.080;4.748;2022-07-10T02:20:12;102641.88;;;13.62;81.73
67009;BME280;53922;52.080;4.748;2022-07-10T02:22:37;102641.28;;;13.71;82.05
67009;BME280;53922;52.080;4.748;2022-07-10T02:25:02;102632.47;;;13.72;81.65
67009;BME280;53922;52.080;4.748;2022-07-10T02:27:28;102629.63;;;13.66;82.40
67009;BME280;53922;52.080;4.748;2022-07-10T02:29:53;102634.66;;;13.58;82.78
67009;BME280;53922;52.080;4.748;2022-07-10T02:32:18;102625.13;;;13.63;83.45
67009;BME280;53922;52.080;4.748;2022-07-10T02:34:44;102631.25;;;13.62;83.62
67009;BME280;53922;52.080;4.748;2022-07-10T02:37:09;102633.88;;;13.61;83.63
67009;BME280;53922;52.080;4.748;2022-07-10T02:39:34;102623.22;;;13.59;83.47
67009;BME280;53922;52.080;4.748;2022-07-10T02:41:59;102621.66;;;13.66;84.81
67009;BME280;53922;52.080;4.748;2022-07-10T02:44:25;102629.41;;;13.87;84.40
67009;BME280;53922;52.080;4.748;2022-07-10T02:46:50;102630.63;;;13.97;83.23
67009;BME280;53922;52.080;4.748;2022-07-10T02:49:15;102638.72;;;14.02;81.99
67009;BME280;53922;52.080;4.748;2022-07-10T02:51:40;102639.09;;;14.14;82.41
67009;BME280;53922;52.080;4.748;2022-07-10T02:54:05;102639.97;;;14.13;81.87
67009;BME280;53922;52.080;4.748;2022-07-10T02:56:32;102631.25;;;14.17;82.21
67009;BME280;53922;52.080;4.748;2022-07-10T02:58:57;102638.38;;;14.20;82.44
67009;BME280;53922;52.080;4.748;2022-07-10T03:01:23;102632.09;;;14.16;82.16
67009;BME280;53922;52.080;4.748;2022-07-10T03:03:48;102630.38;;;14.18;83.23
67009;BME280;53922;52.080;4.748;2022-07-10T03:06:13;102636.75;;;14.23;82.45
67009;BME280;53922;52.080;4.748;2022-07-10T03:08:39;102634.16;;;14.26;82.24
67009;BME280;53922;52.080;4.748;2022-07-10T03:11:04;102627.94;;;14.24;82.29
67009;BME280;53922;52.080;4.748;2022-07-10T03:13:29;102632.66;;;14.35;82.53
67009;BME280;53922;52.080;4.748;2022-07-10T03:15:54;102636.25;;;14.37;82.50
67009;BME280;53922;52.080;4.748;2022-07-10T03:18:20;102622.22;;;14.41;82.52
67009;BME280;53922;52.080;4.748;2022-07-10T03:20:45;102617.75;;;14.40;82.09
67009;BME280;53922;52.080;4.748;2022-07-10T03:23:10;102612.63;;;14.46;82.18
67009;BME280;53922;52.080;4.748;2022-07-10T03:25:36;102617.94;;;14.46;82.26
67009;BME280;53922;52.080;4.748;2022-07-10T03:28:01;102620.81;;;14.54;82.52
67009;BME280;53922;52.080;4.748;2022-07-10T03:30:26;102619.00;;;14.53;81.50
67009;BME280;53922;52.080;4.748;2022-07-10T03:32:51;102606.69;;;14.55;81.55
67009;BME280;53922;52.080;4.748;2022-07-10T03:35:17;102610.19;;;14.54;81.58
67009;BME280;53922;52.080;4.748;2022-07-10T03:37:42;102608.50;;;14.56;82.00
67009;BME280;53922;52.080;4.748;2022-07-10T03:40:08;102612.00;;;14.55;81.89
67009;BME280;53922;52.080;4.748;2022-07-10T03:42:33;102610.34;;;14.58;81.98
67009;BME280;53922;52.080;4.748;2022-07-10T03:44:58;102615.72;;;14.61;81.93
67009;BME280;53922;52.080;4.748;2022-07-10T03:47:24;102618.31;;;14.58;81.85
67009;BME280;53922;52.080;4.748;2022-07-10T03:49:49;102604.13;;;14.58;81.98
67009;BME280;53922;52.080;4.748;2022-07-10T03:52:14;102606.94;;;14.64;81.95
67009;BME280;53922;52.080;4.748;2022-07-10T03:54:40;102608.81;;;14.67;82.30
67009;BME280;53922;52.080;4.748;2022-07-10T03:57:05;102604.47;;;14.69;81.69
67009;BME280;53922;52.080;4.748;2022-07-10T03:59:49;102605.28;;;14.66;81.49
67009;BME280;53922;52.080;4.748;2022-07-10T04:02:14;102600.81;;;14.65;81.56
67009;BME280;53922;52.080;4.748;2022-07-10T04:04:39;102586.41;;;14.57;81.54
67009;BME280;53922;52.080;4.748;2022-07-10T04:07:05;102584.13;;;14.69;81.98
67009;BME280;53922;52.080;4.748;2022-07-10T04:09:30;102586.09;;;14.76;81.35
67009;BME280;53922;52.080;4.748;2022-07-10T04:11:56;102593.53;;;14.90;81.15
67009;BME280;53922;52.080;4.748;2022-07-10T04:14:21;102582.88;;;14.88;80.82
67009;BME280;53922;52.080;4.748;2022-07-10T04:16:46;102594.47;;;14.92;81.13
67009;BME280;53922;52.080;4.748;2022-07-10T04:19:11;102590.06;;;14.92;80.90
67009;BME280;53922;52.080;4.748;2022-07-10T04:21:38;102587.47;;;14.96;81.68
67009;BME280;53922;52.080;4.748;2022-07-10T04:24:03;102593.72;;;14.96;80.75
67009;BME280;53922;52.080;4.748;2022-07-10T04:26:29;102600.94;;;15.02;81.11
67009;BME280;53922;52.080;4.748;2022-07-10T04:28:54;102599.25;;;15.05;80.54
67009;BME280;53922;52.080;4.748;2022-07-10T04:31:19;102602.84;;;15.06;80.89
67009;BME280;53922;52.080;4.748;2022-07-10T04:33:44;102605.59;;;15.10;80.76
67009;BME280;53922;52.080;4.748;2022-07-10T04:36:09;102612.00;;;15.17;80.14
67009;BME280;53922;52.080;4.748;2022-07-10T04:38:35;102614.56;;;15.16;80.93
67009;BME280;53922;52.080;4.748;2022-07-10T04:41:00;102614.66;;;15.17;81.02
67009;BME280;53922;52.080;4.748;2022-07-10T04:43:25;102617.19;;;15.14;81.38
67009;BME280;53922;52.080;4.748;2022-07-10T04:45:51;102611.00;;;15.14;81.33
67009;BME280;53922;52.080;4.748;2022-07-10T04:48:16;102606.75;;;15.20;81.82
67009;BME280;53922;52.080;4.748;2022-07-10T04:50:41;102611.22;;;15.23;80.88
67009;BME280;53922;52.080;4.748;2022-07-10T04:53:06;102616.69;;;15.28;81.01
67009;BME280;53922;52.080;4.748;2022-07-10T04:55:32;102616.81;;;15.32;80.79
67009;BME280;53922;52.080;4.748;2022-07-10T04:57:57;102620.41;;;15.36;81.08
67009;BME280;53922;52.080;4.748;2022-07-10T05:00:22;102620.50;;;15.39;80.72
67009;BME280;53922;52.080;4.748;2022-07-10T05:02:48;102627.66;;;15.41;81.15
67009;BME280;53922;52.080;4.748;2022-07-10T05:05:13;102624.97;;;15.40;80.84
67009;BME280;53922;52.080;4.748;2022-07-10T05:07:38;102628.38;;;15.36;80.91
67009;BME280;53922;52.080;4.748;2022-07-10T05:10:03;102629.50;;;15.44;80.89
67009;BME280;53922;52.080;4.748;2022-07-10T05:12:29;102622.34;;;15.41;80.82
67009;BME280;53922;52.080;4.748;2022-07-10T05:14:54;102612.69;;;15.45;80.74
67009;BME280;53922;52.080;4.748;2022-07-10T05:17:20;102627.16;;;15.56;80.06
67009;BME280;53922;52.080;4.748;2022-07-10T05:19:45;102625.44;;;15.58;79.67
67009;BME280;53922;52.080;4.748;2022-07-10T05:22:10;102621.13;;;15.64;79.81
67009;BME280;53922;52.080;4.748;2022-07-10T05:24:36;102621.16;;;15.65;79.10
67009;BME280;53922;52.080;4.748;2022-07-10T05:27:01;102621.28;;;15.70;80.07
67009;BME280;53922;52.080;4.748;2022-07-10T05:29:27;102614.19;;;15.70;79.67
67009;BME280;53922;52.080;4.748;2022-07-10T05:31:52;102610.72;;;15.74;79.07
67009;BME280;53922;52.080;4.748;2022-07-10T05:34:17;102609.91;;;15.77;78.83
67009;BME280;53922;52.080;4.748;2022-07-10T05:36:43;102612.88;;;15.88;78.47
67009;BME280;53922;52.080;4.748;2022-07-10T05:39:08;102608.53;;;15.92;78.41
67009;BME280;53922;52.080;4.748;2022-07-10T05:41:33;102603.44;;;16.02;77.91
67009;BME280;53922;52.080;4.748;2022-07-10T05:43:59;102605.19;;;16.02;77.92
67009;BME280;53922;52.080;4.748;2022-07-10T05:46:24;102600.06;;;16.11;77.74
67009;BME280;53922;52.080;4.748;2022-07-10T05:48:50;102607.28;;;16.15;76.73
67009;BME280;53922;52.080;4.748;2022-07-10T05:51:15;102602.72;;;16.11;77.50
67009;BME280;53922;52.080;4.748;2022-07-10T05:53:40;102594.75;;;16.11;78.17
67009;BME280;53922;52.080;4.748;2022-07-10T05:56:05;102602.94;;;16.19;77.79
67009;BME280;53922;52.080;4.748;2022-07-10T05:58:31;102605.66;;;16.23;76.71
67009;BME280;53922;52.080;4.748;2022-07-10T06:00:56;102604.63;;;16.15;76.26
67009;BME280;53922;52.080;4.748;2022-07-10T06:03:21;102599.28;;;16.14;76.84
67009;BME280;53922;52.080;4.748;2022-07-10T06:05:47;102587.66;;;16.10;76.90
67009;BME280;53922;52.080;4.748;2022-07-10T06:08:12;102602.53;;;16.02;76.57
67009;BME280;53922;52.080;4.748;2022-07-10T06:10:37;102593.97;;;16.15;76.89
67009;BME280;53922;52.080;4.748;2022-07-10T06:13:04;102594.13;;;16.21;76.71
67009;BME280;53922;52.080;4.748;2022-07-10T06:15:29;102604.78;;;16.23;76.35
67009;BME280;53922;52.080;4.748;2022-07-10T06:17:58;102606.66;;;16.29;76.35
67009;BME280;53922;52.080;4.748;2022-07-10T06:20:24;102603.94;;;16.24;76.18
67009;BME280;53922;52.080;4.748;2022-07-10T06:22:49;102601.72;;;16.47;76.46
67009;BME280;53922;52.080;4.748;2022-07-10T06:25:14;102599.19;;;16.53;76.00
67009;BME280;53922;52.080;4.748;2022-07-10T06:27:40;102603.84;;;16.64;75.42
67009;BME280;53922;52.080;4.748;2022-07-10T06:30:05;102606.59;;;16.67;75.14
67009;BME280;53922;52.080;4.748;2022-07-10T06:32:31;102600.56;;;16.79;74.76
67009;BME280;53922;52.080;4.748;2022-07-10T06:34:56;102603.31;;;16.80;74.28
67009;BME280;53922;52.080;4.748;2022-07-10T06:37:21;102602.47;;;16.84;73.97
67009;BME280;53922;52.080;4.748;2022-07-10T06:39:47;102608.78;;;16.90;74.48
67009;BME280;53922;52.080;4.748;2022-07-10T06:42:15;102613.25;;;16.89;75.17
67009;BME280;53922;52.080;4.748;2022-07-10T06:44:41;102608.53;;;16.77;74.20
67009;BME280;53922;52.080;4.748;2022-07-10T06:47:06;102621.84;;;16.76;74.07
67009;BME280;53922;52.080;4.748;2022-07-10T06:49:50;102619.28;;;16.80;74.05
67009;BME280;53922;52.080;4.748;2022-07-10T06:52:16;102619.31;;;16.83;75.04
67009;BME280;53922;52.080;4.748;2022-07-10T06:54:41;102621.03;;;16.80;75.17
67009;BME280;53922;52.080;4.748;2022-07-10T06:57:07;102620.94;;;16.75;74.04
67009;BME280;53922;52.080;4.748;2022-07-10T06:59:33;102615.69;;;16.78;73.95
67009;BME280;53922;52.080;4.748;2022-07-10T07:01:58;102610.50;;;16.87;73.74
67009;BME280;53922;52.080;4.748;2022-07-10T07:04:23;102616.97;;;16.97;73.84
67009;BME280;53922;52.080;4.748;2022-07-10T07:06:48;102617.16;;;17.08;73.21
67009;BME280;53922;52.080;4.748;2022-07-10T07:09:14;102622.69;;;17.19;73.36
67009;BME280;53922;52.080;4.748;2022-07-10T07:11:39;102611.38;;;17.34;73.16
67009;BME280;53922;52.080;4.748;2022-07-10T07:14:04;102614.91;;;17.31;73.00
67009;BME280;53922;52.080;4.748;2022-07-10T07:16:29;102621.06;;;17.27;72.63
67009;BME280;53922;52.080;4.748;2022-07-10T07:19:08;102620.31;;;17.34;72.83
67009;BME280;53922;52.080;4.748;2022-07-10T07:21:35;102624.81;;;17.40;73.58
67009;BME280;53922;52.080;4.748;2022-07-10T07:24:19;102614.44;;;17.56;72.90
67009;BME280;53922;52.080;4.748;2022-07-10T07:26:44;102617.84;;;17.47;72.08
67009;BME280;53922;52.080;4.748;2022-07-10T07:29:12;102616.81;;;17.40;72.04
67009;BME280;53922;52.080;4.748;2022-07-10T07:31:37;102614.91;;;17.33;71.98
67009;BME280;53922;52.080;4.748;2022-07-10T07:34:02;102614.03;;;17.32;72.83
67009;BME280;53922;52.080;4.748;2022-07-10T07:36:27;102614.88;;;17.30;73.82
67009;BME280;53922;52.080;4.748;2022-07-10T07:38:52;102608.44;;;17.17;73.71
67009;BME280;53922;52.080;4.748;2022-07-10T07:41:18;102614.84;;;17.27;73.96
67009;BME280;53922;52.080;4.748;2022-07-10T07:43:43;102613.84;;;17.22;72.64
67009;BME280;53922;52.080;4.748;2022-07-10T07:46:08;102622.91;;;17.33;72.44
67009;BME280;53922;52.080;4.748;2022-07-10T07:48:34;102614.22;;;17.43;73.20
67009;BME280;53922;52.080;4.748;2022-07-10T07:51:00;102627.31;;;17.29;72.40
67009;BME280;53922;52.080;4.748;2022-07-10T07:53:25;102624.69;;;17.32;73.55
67009;BME280;53922;52.080;4.748;2022-07-10T07:55:50;102630.03;;;17.32;72.92
67009;BME280;53922;52.080;4.748;2022-07-10T07:58:15;102633.56;;;17.33;73.31
67009;BME280;53922;52.080;4.748;2022-07-10T08:00:41;102630.00;;;17.29;73.17
67009;BME280;53922;52.080;4.748;2022-07-10T08:03:06;102629.91;;;17.25;73.30
67009;BME280;53922;52.080;4.748;2022-07-10T08:05:33;102633.56;;;17.33;74.21
67009;BME280;53922;52.080;4.748;2022-07-10T08:07:58;102628.31;;;17.34;73.15
67009;BME280;53922;52.080;4.748;2022-07-10T08:10:29;102624.69;;;17.31;72.90
67009;BME280;53922;52.080;4.748;2022-07-10T08:12:54;102628.66;;;17.56;72.68
67009;BME280;53922;52.080;4.748;2022-07-10T08:15:20;102621.84;;;17.75;71.82
67009;BME280;53922;52.080;4.748;2022-07-10T08:17:49;102615.97;;;17.95;71.63
67009;BME280;53922;52.080;4.748;2022-07-10T08:20:14;102625.91;;;18.07;71.99
67009;BME280;53922;52.080;4.748;2022-07-10T08:22:40;102625.22;;;18.20;72.34
67009;BME280;53922;52.080;4.748;2022-07-10T08:25:07;102614.50;;;18.19;71.79
67009;BME280;53922;52.080;4.748;2022-07-10T08:27:32;102624.44;;;18.30;70.91
67009;BME280;53922;52.080;4.748;2022-07-10T08:29:58;102626.31;;;18.36;70.20
67009;BME280;53922;52.080;4.748;2022-07-10T08:32:23;102621.13;;;18.48;72.18
67009;BME280;53922;52.080;4.748;2022-07-10T08:34:48;102626.66;;;18.65;69.57
67009;BME280;53922;52.080;4.748;2022-07-10T08:37:14;102623.97;;;18.64;68.80
67009;BME280;53922;52.080;4.748;2022-07-10T08:39:39;102619.59;;;18.71;69.61
67009;BME280;53922;52.080;4.748;2022-07-10T08:42:06;102621.38;;;18.70;69.27
67009;BME280;53922;52.080;4.748;2022-07-10T08:44:34;102610.75;;;18.75;69.91
67009;BME280;53922;52.080;4.748;2022-07-10T08:46:59;102619.91;;;18.94;71.12
67009;BME280;53922;52.080;4.748;2022-07-10T08:49:28;102616.63;;;19.24;69.04
67009;BME280;53922;52.080;4.748;2022-07-10T08:51:57;102615.88;;;19.42;67.66
67009;BME280;53922;52.080;4.748;2022-07-10T08:54:23;102624.84;;;19.46;67.04
67009;BME280;53922;52.080;4.748;2022-07-10T08:56:50;102611.56;;;19.58;66.01
67009;BME280;53922;52.080;4.748;2022-07-10T08:59:15;102617.00;;;19.71;66.11
67009;BME280;53922;52.080;4.748;2022-07-10T09:01:41;102605.28;;;19.55;66.54
67009;BME280;53922;52.080;4.748;2022-07-10T09:04:07;102606.31;;;19.72;66.39
67009;BME280;53922;52.080;4.748;2022-07-10T09:06:40;102598.13;;;19.51;65.57
67009;BME280;53922;52.080;4.748;2022-07-10T09:09:07;102600.91;;;19.63;64.80
67009;BME280;53922;52.080;4.748;2022-07-10T09:11:33;102598.22;;;19.65;64.32
67009;BME280;53922;52.080;4.748;2022-07-10T09:13:59;102597.41;;;19.70;63.92
67009;BME280;53922;52.080;4.748;2022-07-10T09:18:50;102598.59;;;20.14;63.15
67009;BME280;53922;52.080;4.748;2022-07-10T09:21:16;102592.31;;;20.12;63.03
67009;BME280;53922;52.080;4.748;2022-07-10T09:23:41;102598.56;;;20.13;61.21
67009;BME280;53922;52.080;4.748;2022-07-10T09:26:08;102590.59;;;20.23;62.68
67009;BME280;53922;52.080;4.748;2022-07-10T09:28:33;102589.75;;;20.40;61.50
67009;BME280;53922;52.080;4.748;2022-07-10T09:30:59;102595.06;;;20.26;62.59
67009;BME280;53922;52.080;4.748;2022-07-10T09:33:25;102582.44;;;20.03;62.61
67009;BME280;53922;52.080;4.748;2022-07-10T09:36:32;102586.84;;;19.93;62.35
67009;BME280;53922;52.080;4.748;2022-07-10T09:41:11;102597.66;;;20.14;61.39
67009;BME280;53922;52.080;4.748;2022-07-10T09:43:46;102590.59;;;20.26;60.50
67009;BME280;53922;52.080;4.748;2022-07-10T09:46:11;102586.19;;;20.39;61.47
67009;BME280;53922;52.080;4.748;2022-07-10T09:48:37;102587.16;;;20.68;61.91
67009;BME280;53922;52.080;4.748;2022-07-10T09:51:02;102588.06;;;20.60;61.63
67009;BME280;53922;52.080;4.748;2022-07-10T09:53:27;102589.88;;;20.69;60.99
67009;BME280;53922;52.080;4.748;2022-07-10T09:55:53;102586.28;;;20.66;60.28
67009;BME280;53922;52.080;4.748;2022-07-10T09:58:20;102581.03;;;21.14;59.85
67009;BME280;53922;52.080;4.748;2022-07-10T10:00:48;102580.13;;;21.30;59.01
67009;BME280;53922;52.080;4.748;2022-07-10T10:03:14;102580.16;;;21.67;58.02
67009;BME280;53922;52.080;4.748;2022-07-10T10:05:43;102572.88;;;22.11;55.72
67009;BME280;53922;52.080;4.748;2022-07-10T10:08:12;102579.06;;;22.29;57.58
67009;BME280;53922;52.080;4.748;2022-07-10T10:10:45;102584.47;;;22.23;54.89
67009;BME280;53922;52.080;4.748;2022-07-10T10:13:11;102587.19;;;22.05;55.58
67009;BME280;53922;52.080;4.748;2022-07-10T10:15:37;102582.69;;;22.17;53.95
67009;BME280;53922;52.080;4.748;2022-07-10T10:18:02;102577.22;;;22.45;54.72
67009;BME280;53922;52.080;4.748;2022-07-10T10:20:28;102582.56;;;22.51;54.12
67009;BME280;53922;52.080;4.748;2022-07-10T10:23:10;102581.72;;;22.27;53.64
67009;BME280;53922;52.080;4.748;2022-07-10T10:25:37;102579.16;;;21.95;54.33
67009;BME280;53922;52.080;4.748;2022-07-10T10:28:03;102580.91;;;22.10;55.30
67009;BME280;53922;52.080;4.748;2022-07-10T10:30:29;102575.44;;;22.34;55.60
67009;BME280;53922;52.080;4.748;2022-07-10T10:32:55;102583.44;;;22.50;54.58
67009;BME280;53922;52.080;4.748;2022-07-10T10:38:04;102573.66;;;22.33;54.61
67009;BME280;53922;52.080;4.748;2022-07-10T10:40:31;102569.25;;;22.11;55.94
67009;BME280;53922;52.080;4.748;2022-07-10T10:42:58;102567.50;;;22.08;53.94
67009;BME280;53922;52.080;4.748;2022-07-10T10:47:58;102572.00;;;21.98;55.54
67009;BME280;53922;52.080;4.748;2022-07-10T10:50:36;102562.22;;;21.80;56.36
67009;BME280;53922;52.080;4.748;2022-07-10T10:53:03;102565.72;;;21.99;54.76
67009;BME280;53922;52.080;4.748;2022-07-10T10:55:28;102573.84;;;21.75;54.46
67009;BME280;53922;52.080;4.748;2022-07-10T10:57:53;102570.25;;;21.86;55.95
67009;BME280;53922;52.080;4.748;2022-07-10T11:00:36;102573.78;;;22.04;55.85
67009;BME280;53922;52.080;4.748;2022-07-10T11:03:13;102571.91;;;22.28;56.51
67009;BME280;53922;52.080;4.748;2022-07-10T11:05:39;102573.66;;;22.43;54.85
67009;BME280;53922;52.080;4.748;2022-07-10T11:08:06;102576.97;;;22.85;54.08
67009;BME280;53922;52.080;4.748;2022-07-10T11:13:16;102566.75;;;23.38;51.01
67009;BME280;53922;52.080;4.748;2022-07-10T11:15:42;102555.91;;;23.44;51.17
67009;BME280;53922;52.080;4.748;2022-07-10T11:18:10;102554.16;;;23.39;52.09
67009;BME280;53922;52.080;4.748;2022-07-10T11:20:37;102561.38;;;23.33;51.41
67009;BME280;53922;52.080;4.748;2022-07-10T11:28:07;102558.00;;;23.03;50.85
67009;BME280;53922;52.080;4.748;2022-07-10T11:33:09;102557.44;;;22.53;50.31
67009;BME280;53922;52.080;4.748;2022-07-10T11:35:35;102553.84;;;22.56;50.85
67009;BME280;53922;52.080;4.748;2022-07-10T11:38:01;102551.03;;;22.79;50.55
67009;BME280;53922;52.080;4.748;2022-07-10T11:40:26;102550.34;;;22.45;48.88
67009;BME280;53922;52.080;4.748;2022-07-10T11:42:53;102550.38;;;22.37;50.05
67009;BME280;53922;52.080;4.748;2022-07-10T11:47:50;102537.53;;;22.87;49.49
67009;BME280;53922;52.080;4.748;2022-07-10T11:50:15;102534.47;;;23.37;49.94
67009;BME280;53922;52.080;4.748;2022-07-10T11:52:40;102539.66;;;23.57;47.26
67009;BME280;53922;52.080;4.748;2022-07-10T11:55:15;102537.66;;;23.74;49.47
67009;BME280;53922;52.080;4.748;2022-07-10T11:57:41;102541.03;;;23.90;46.62
67009;BME280;53922;52.080;4.748;2022-07-10T12:00:06;102540.72;;;24.18;45.68
67009;BME280;53922;52.080;4.748;2022-07-10T12:02:32;102537.91;;;24.29;45.48
67009;BME280;53922;52.080;4.748;2022-07-10T12:04:57;102533.94;;;24.56;45.47
67009;BME280;53922;52.080;4.748;2022-07-10T12:07:23;102529.88;;;24.26;44.97
67009;BME280;53922;52.080;4.748;2022-07-10T12:09:54;102527.59;;;23.93;44.86
67009;BME280;53922;52.080;4.748;2022-07-10T12:12:22;102527.72;;;23.78;45.20
67009;BME280;53922;52.080;4.748;2022-07-10T12:14:47;102526.59;;;24.01;47.19
67009;BME280;53922;52.080;4.748;2022-07-10T12:17:12;102535.53;;;24.06;45.35
67009;BME280;53922;52.080;4.748;2022-07-10T12:19:38;102534.56;;;24.10;46.28
67009;BME280;53922;52.080;4.748;2022-07-10T12:22:04;102527.25;;;24.18;46.57
67009;BME280;53922;52.080;4.748;2022-07-10T12:24:30;102527.25;;;24.20;45.81
67009;BME280;53922;52.080;4.748;2022-07-10T12:26:55;102530.13;;;24.06;47.49
67009;BME280;53922;52.080;4.748;2022-07-10T12:29:22;102530.75;;;24.26;47.23
67009;BME280;53922;52.080;4.748;2022-07-10T12:31:48;102520.38;;;23.94;47.84
67009;BME280;53922;52.080;4.748;2022-07-10T12:34:14;102530.22;;;23.96;47.53
67009;BME280;53922;52.080;4.748;2022-07-10T12:36:40;102526.72;;;23.88;48.51
67009;BME280;53922;52.080;4.748;2022-07-10T12:39:06;102517.19;;;23.56;49.66
67009;BME280;53922;52.080;4.748;2022-07-10T12:41:31;102519.81;;;23.65;50.62
67009;BME280;53922;52.080;4.748;2022-07-10T12:43:56;102525.03;;;23.79;49.39
67009;BME280;53922;52.080;4.748;2022-07-10T12:46:22;102526.91;;;23.71;48.89
67009;BME280;53922;52.080;4.748;2022-07-10T12:51:29;102513.72;;;23.45;50.64
67009;BME280;53922;52.080;4.748;2022-07-10T12:53:55;102516.44;;;23.40;51.24
67009;BME280;53922;52.080;4.748;2022-07-10T12:56:55;102515.47;;;23.50;49.65
67009;BME280;53922;52.080;4.748;2022-07-10T12:59:13;102515.19;;;23.74;50.49
67009;BME280;53922;52.080;4.748;2022-07-10T13:01:42;102519.63;;;23.81;49.47
67009;BME280;53922;52.080;4.748;2022-07-10T13:04:08;102517.81;;;23.80;48.86
67009;BME280;53922;52.080;4.748;2022-07-10T13:06:36;102518.91;;;23.65;50.15
67009;BME280;53922;52.080;4.748;2022-07-10T13:09:02;102518.03;;;23.61;50.92
67009;BME280;53922;52.080;4.748;2022-07-10T13:11:27;102514.56;;;23.50;49.56